createdAt,value
2022-08-09T00:01:54.091Z,62.07
2022-08-09T00:04:33.863Z,61.07
2022-08-09T00:06:57.027Z,60.81
2022-08-09T00:09:19.066Z,62.36
2022-08-09T00:12:02.950Z,62.16
2022-08-09T00:14:36.181Z,63.83
2022-08-09T00:16:59.387Z,62.70
2022-08-09T00:19:20.850Z,64.69
2022-08-09T00:21:56.089Z,63.71
2022-08-09T00:24:18.399Z,61.84
2022-08-09T00:26:41.572Z,62.91
2022-08-09T00:29:12.513Z,63.49
2022-08-09T00:31:59.060Z,63.11
2022-08-09T00:34:22.149Z,63.86
2022-08-09T00:36:48.832Z,63.35
2022-08-09T00:39:16.905Z,65.14
2022-08-09T00:44:10.934Z,66.10
2022-08-09T00:44:33.957Z,65.20
2022-08-09T00:47:04.767Z,64.26
2022-08-09T00:49:28.098Z,66.30
2022-08-09T00:51:54.602Z,65.06
2022-08-09T00:54:18.147Z,64.35
2022-08-09T00:56:39.608Z,64.71
2022-08-09T00:59:01.074Z,65.84
2022-08-09T01:01:32.248Z,66.89
2022-08-09T01:03:59.342Z,64.63
2022-08-09T01:06:54.886Z,64.98
2022-08-09T01:09:23.237Z,64.84
2022-08-09T01:12:04.376Z,66.10
2022-08-09T01:14:35.095Z,66.30
2022-08-09T01:17:04.653Z,65.53
2022-08-09T01:20:01.913Z,68.27
2022-08-09T01:22:35.921Z,69.39
2022-08-09T01:25:26.886Z,67.07
2022-08-09T01:27:52.736Z,66.38
2022-08-09T01:30:28.452Z,66.08
2022-08-09T01:32:58.041Z,66.02
2022-08-09T01:35:52.218Z,67.53
2022-08-09T01:38:20.561Z,67.16
2022-08-09T01:41:05.427Z,69.33
2022-08-09T01:43:28.565Z,69.88
2022-08-09T01:45:54.341Z,69.61
2022-08-09T01:48:24.059Z,69.66
2022-08-09T01:50:55.221Z,69.44
2022-08-09T01:53:21.516Z,67.77
2022-08-09T01:55:44.379Z,68.91
2022-08-09T01:58:10.146Z,68.39
2022-08-09T02:00:35.790Z,69.26
2022-08-09T02:02:58.082Z,68.39
2022-08-09T02:05:37.911Z,68.03
2022-08-09T02:08:39.897Z,69.40
2022-08-09T02:10:54.827Z,67.34
2022-08-09T02:13:19.475Z,66.83
2022-08-09T02:15:50.721Z,68.42
2022-08-09T02:18:15.311Z,69.87
2022-08-09T02:20:45.237Z,69.96
2022-08-09T02:23:12.646Z,68.84
2022-08-09T02:25:42.783Z,68.51
2022-08-09T02:28:49.088Z,71.58
2022-08-09T02:31:22.024Z,70.57
2022-08-09T02:34:07.598Z,69.66
2022-08-09T02:36:45.093Z,70.35
2022-08-09T02:39:33.721Z,71.18
2022-08-09T02:41:58.800Z,70.18
2022-08-09T02:44:29.412Z,68.98
2022-08-09T02:46:55.374Z,69.13
2022-08-09T02:49:19.448Z,70.47
2022-08-09T02:51:55.671Z,72.13
2022-08-09T02:54:19.383Z,71.94
2022-08-09T02:56:51.251Z,70.85
2022-08-09T02:59:26.408Z,70.37
2022-08-09T03:02:06.043Z,69.82
2022-08-09T03:04:31.886Z,70.45
2022-08-09T03:06:55.071Z,70.82
2022-08-09T03:09:18.125Z,71.28
2022-08-09T03:12:06.473Z,70.83
2022-08-09T03:14:28.148Z,72.98
2022-08-09T03:16:50.074Z,72.62
2022-08-09T03:19:14.553Z,71.12
2022-08-09T03:21:57.518Z,71.04
2022-08-09T03:24:31.534Z,71.08
2022-08-09T03:27:01.629Z,72.00
2022-08-09T03:29:24.381Z,72.88
2022-08-09T03:32:00.378Z,73.22
2022-08-09T03:34:22.348Z,71.25
2022-08-09T03:36:43.833Z,71.38
2022-08-09T03:39:19.913Z,72.46
2022-08-09T03:41:48.738Z,73.69
2022-08-09T03:44:10.340Z,73.44
2022-08-09T03:46:34.136Z,73.08
2022-08-09T03:48:59.145Z,74.01
2022-08-09T03:51:55.340Z,74.13
2022-08-09T03:54:11.508Z,72.37
2022-08-09T03:56:33.129Z,72.00
2022-08-09T03:58:55.670Z,71.17
2022-08-09T04:01:17.911Z,70.36
2022-08-09T04:04:01.443Z,70.72
2022-08-09T04:06:23.870Z,72.03
2022-08-09T04:08:46.554Z,73.82
2022-08-09T04:11:11.130Z,73.83
2022-08-09T04:14:36.640Z,73.45
2022-08-09T04:16:20.236Z,73.11
2022-08-09T04:18:42.792Z,73.20
2022-08-09T04:21:09.175Z,71.67
2022-08-09T04:23:30.642Z,71.39
2022-08-09T04:25:53.842Z,71.43
2022-08-09T04:28:15.326Z,73.38
2022-08-09T04:30:55.106Z,74.18
2022-08-09T04:33:17.392Z,74.47
2022-08-09T04:35:42.345Z,74.04
2022-08-09T04:38:03.952Z,75.24
2022-08-09T04:40:45.420Z,73.38
2022-08-09T04:43:07.596Z,71.65
2022-08-09T04:45:30.644Z,71.82
2022-08-09T04:48:01.144Z,72.17
2022-08-09T04:50:31.885Z,74.17
2022-08-09T04:52:56.626Z,74.87
2022-08-09T04:55:19.665Z,74.53
2022-08-09T04:57:53.870Z,74.43
2022-08-09T05:00:19.894Z,74.11
2022-08-09T05:02:44.179Z,75.49
2022-08-09T05:05:10.510Z,73.77
2022-08-09T05:07:32.268Z,74.26
2022-08-09T05:09:53.833Z,76.07
2022-08-09T05:12:17.495Z,75.82
2022-08-09T05:14:41.145Z,75.32
2022-08-09T05:17:02.876Z,75.51
2022-08-09T05:19:25.999Z,75.88
2022-08-09T05:21:55.322Z,75.81
2022-08-09T05:24:17.606Z,75.35
2022-08-09T05:26:46.258Z,74.75
2022-08-09T05:29:17.277Z,74.86
2022-08-09T05:31:46.771Z,75.85
2022-08-09T05:34:17.081Z,77.12
2022-08-09T05:36:39.058Z,76.30
2022-08-09T05:39:04.200Z,76.61
2022-08-09T05:41:26.502Z,76.22
2022-08-09T05:43:49.050Z,75.93
2022-08-09T05:46:11.386Z,75.29
2022-08-09T05:48:33.572Z,74.89
2022-08-09T05:51:12.037Z,74.79
2022-08-09T05:53:51.564Z,75.53
2022-08-09T05:56:18.427Z,74.91
2022-08-09T05:58:44.465Z,74.90
2022-08-09T06:01:06.668Z,74.85
2022-08-09T06:03:34.822Z,74.13
2022-08-09T06:06:06.581Z,74.76
2022-08-09T06:08:28.134Z,75.25
2022-08-09T06:10:50.054Z,75.03
2022-08-09T06:13:18.685Z,74.25
2022-08-09T06:15:42.091Z,74.03
2022-08-09T06:18:04.219Z,73.25
2022-08-09T06:20:26.527Z,73.53
2022-08-09T06:22:51.747Z,72.43
2022-08-09T06:25:16.344Z,71.52
2022-08-09T06:27:43.078Z,71.20
2022-08-09T06:30:13.943Z,70.55
2022-08-09T06:32:59.790Z,70.33
2022-08-09T06:35:17.294Z,69.95
2022-08-09T06:37:53.363Z,69.33
2022-08-09T06:40:23.983Z,68.72
2022-08-09T06:42:46.025Z,68.05
2022-08-09T06:46:03.409Z,67.47
2022-08-09T06:48:00.684Z,67.39
2022-08-09T06:50:23.193Z,66.84
2022-08-09T06:52:48.574Z,66.26
2022-08-09T06:55:12.770Z,65.60
2022-08-09T06:58:02.003Z,64.80
2022-08-09T07:00:52.679Z,64.88
2022-08-09T07:02:58.060Z,62.70
2022-08-09T07:05:19.561Z,61.60
2022-08-09T07:07:59.802Z,60.53
2022-08-09T07:10:31.445Z,61.19
2022-08-09T07:12:57.538Z,61.33
2022-08-09T07:16:35.130Z,61.02
2022-08-09T07:18:02.261Z,60.11
2022-08-09T07:20:25.814Z,59.10
2022-08-09T07:22:53.288Z,58.32
2022-08-09T07:25:15.752Z,57.92
2022-08-09T07:27:42.923Z,57.09
2022-08-09T07:30:15.289Z,56.79
2022-08-09T07:32:43.597Z,55.54
2022-08-09T07:35:11.568Z,55.59
2022-08-09T07:37:44.046Z,54.29
2022-08-09T07:40:07.015Z,53.25
2022-08-09T07:42:32.773Z,53.40
2022-08-09T07:44:57.300Z,52.98
2022-08-09T07:47:23.477Z,52.93
2022-08-09T07:49:52.240Z,52.50
2022-08-09T07:52:26.835Z,52.47
2022-08-09T07:54:51.401Z,51.57
2022-08-09T07:57:13.325Z,50.13
2022-08-09T07:59:51.055Z,50.37
2022-08-09T08:02:19.868Z,50.17
2022-08-09T08:04:41.798Z,49.26
2022-08-09T08:07:42.163Z,47.91
2022-08-09T08:10:05.660Z,48.13
2022-08-09T08:12:31.055Z,47.60
2022-08-09T08:14:52.730Z,47.52
2022-08-09T08:17:35.120Z,46.86
2022-08-09T08:19:56.046Z,46.60
2022-08-09T08:22:17.976Z,45.71
2022-08-09T08:24:49.096Z,46.72
2022-08-09T08:27:17.144Z,44.89
2022-08-09T08:29:48.530Z,45.25
2022-08-09T08:32:12.501Z,44.57
2022-08-09T08:34:40.605Z,43.67
2022-08-09T08:37:03.005Z,43.29
2022-08-09T08:39:24.567Z,41.92
2022-08-09T08:41:51.630Z,42.57
2022-08-09T08:44:14.497Z,42.54
2022-08-09T08:47:02.235Z,41.64
2022-08-09T08:49:26.797Z,41.09
2022-08-09T08:52:04.007Z,40.10
2022-08-09T08:54:31.798Z,41.25
2022-08-09T08:56:54.305Z,40.22
2022-08-09T08:59:19.243Z,40.31
2022-08-09T09:01:53.329Z,40.40
2022-08-09T09:04:26.998Z,39.46
2022-08-09T09:06:51.641Z,39.15
2022-08-09T09:09:21.091Z,38.55
2022-08-09T09:11:58.917Z,38.90
2022-08-09T09:14:23.702Z,37.67
2022-08-09T09:16:45.828Z,37.12
2022-08-09T09:22:28.894Z,37.38
2022-08-09T09:25:00.763Z,36.53
2022-08-09T09:28:04.249Z,36.44
2022-08-09T09:30:38.599Z,36.91
2022-08-09T09:33:15.472Z,37.27
2022-08-09T09:36:20.376Z,35.87
2022-08-09T09:38:44.364Z,35.20
2022-08-09T09:41:06.444Z,34.91
2022-08-09T09:43:41.261Z,35.31
2022-08-09T09:49:03.242Z,33.83
2022-08-09T09:51:38.614Z,34.17
2022-08-09T09:54:20.312Z,34.29
2022-08-09T09:56:53.294Z,33.70
2022-08-09T09:59:35.515Z,34.03
2022-08-09T10:02:00.944Z,32.57
2022-08-09T10:04:30.303Z,32.68
2022-08-09T10:06:54.466Z,32.11
2022-08-09T10:09:23.354Z,32.22
2022-08-09T10:12:00.242Z,32.97
2022-08-09T10:14:33.221Z,32.98
2022-08-09T10:17:05.278Z,32.33
2022-08-09T10:19:37.581Z,32.17
2022-08-09T10:21:59.608Z,31.93
2022-08-09T10:24:25.602Z,32.08
2022-08-09T10:26:58.346Z,32.41
2022-08-09T10:30:01.683Z,32.93
2022-08-09T10:34:46.095Z,31.50
2022-08-09T10:37:09.558Z,31.05
2022-08-09T10:39:40.952Z,30.73
2022-08-09T10:42:11.065Z,30.92
2022-08-09T10:44:34.294Z,30.57
2022-08-09T10:47:20.482Z,30.24
2022-08-09T10:50:14.760Z,29.71
2022-08-09T10:53:14.345Z,29.48
2022-08-09T10:55:55.477Z,28.68
2022-08-09T10:58:49.461Z,28.73
2022-08-09T11:03:15.302Z,28.41
2022-08-09T11:04:30.108Z,28.40
2022-08-09T11:07:00.700Z,28.00
2022-08-09T11:09:47.542Z,28.31
2022-08-09T11:12:29.825Z,29.22
2022-08-09T11:14:55.940Z,28.67
2022-08-09T11:17:21.710Z,28.62
2022-08-09T11:20:20.383Z,27.91
2022-08-09T11:22:44.822Z,27.67
2022-08-09T11:25:08.448Z,26.98
2022-08-09T11:28:04.706Z,27.51
2022-08-09T11:30:32.106Z,27.67
2022-08-09T11:33:07.231Z,28.22
2022-08-09T11:35:50.403Z,27.24
2022-08-09T11:38:22.582Z,28.19
2022-08-09T11:40:55.075Z,27.18
2022-08-09T11:43:38.763Z,27.99
2022-08-09T11:46:02.116Z,27.34
2022-08-09T11:48:28.189Z,27.87
2022-08-09T11:52:06.696Z,27.09
2022-08-09T11:54:01.016Z,26.60
2022-08-09T11:56:42.808Z,26.02
2022-08-09T11:59:10.561Z,25.70
2022-08-09T12:02:35.133Z,25.04
2022-08-09T12:04:32.286Z,25.31
2022-08-09T12:06:59.210Z,24.73
2022-08-09T12:09:33.657Z,24.66
2022-08-09T12:12:12.871Z,24.23
2022-08-09T12:14:40.851Z,24.00
2022-08-09T12:17:27.661Z,23.74
2022-08-09T12:19:59.364Z,23.25
2022-08-09T12:22:22.691Z,23.67
2022-08-09T12:24:47.634Z,23.26
2022-08-09T12:29:13.385Z,23.61
2022-08-09T12:30:39.005Z,23.17
2022-08-09T12:32:45.193Z,22.77
2022-08-09T12:35:12.547Z,23.42
2022-08-09T12:37:50.447Z,23.06
2022-08-09T12:40:15.073Z,23.52
2022-08-09T12:42:43.567Z,23.63
2022-08-09T12:45:07.141Z,23.65
2022-08-09T12:47:50.634Z,23.91
2022-08-09T12:50:19.825Z,24.19
2022-08-09T12:53:08.262Z,23.82
2022-08-09T12:56:14.001Z,22.87
2022-08-09T12:58:24.244Z,20.69
2022-08-09T13:00:48.944Z,20.98
2022-08-09T13:03:24.363Z,19.50
2022-08-09T13:05:52.434Z,19.64
2022-08-09T13:08:40.596Z,19.96
2022-08-09T13:11:22.621Z,20.60
2022-08-09T13:14:40.853Z,19.96
2022-08-09T13:16:49.553Z,20.66
2022-08-09T13:19:11.929Z,20.74
2022-08-09T13:22:37.693Z,21.00
2022-08-09T13:24:42.627Z,21.16
2022-08-09T13:26:58.482Z,20.81
2022-08-09T13:29:28.581Z,21.01
2022-08-09T13:32:14.220Z,20.63
2022-08-09T13:34:40.993Z,19.44
2022-08-09T13:37:05.309Z,18.87
2022-08-09T13:41:19.199Z,18.52
2022-08-09T13:42:17.810Z,18.42
2022-08-09T13:44:43.587Z,18.03
2022-08-09T13:47:29.130Z,17.74
2022-08-09T13:49:58.092Z,17.49
2022-08-09T13:52:23.027Z,17.12
2022-08-09T13:54:58.751Z,17.41
2022-08-09T13:57:36.520Z,17.62
2022-08-09T14:00:01.912Z,18.13
2022-08-09T14:02:25.867Z,19.09
2022-08-09T14:04:59.750Z,19.03
2022-08-09T14:07:21.865Z,19.08
2022-08-09T14:09:53.281Z,18.53
2022-08-09T14:12:17.048Z,18.15
2022-08-09T14:14:39.928Z,17.71
2022-08-09T14:17:05.509Z,17.63
2022-08-09T14:19:27.206Z,17.17
2022-08-09T14:21:55.276Z,17.49
2022-08-09T14:24:22.296Z,16.92
2022-08-09T14:26:53.713Z,16.63
2022-08-09T14:30:18.599Z,16.53
2022-08-09T14:31:58.891Z,16.55
2022-08-09T14:34:33.124Z,16.80
2022-08-09T14:36:55.643Z,16.99
2022-08-09T14:39:17.352Z,17.24
2022-08-09T14:41:40.248Z,17.20
2022-08-09T14:44:03.711Z,16.75
2022-08-09T14:46:54.999Z,16.58
2022-08-09T14:49:06.719Z,15.95
2022-08-09T14:51:42.317Z,15.79
2022-08-09T14:54:04.255Z,16.52
2022-08-09T14:56:26.796Z,16.15
2022-08-09T14:58:48.568Z,16.89
2022-08-09T15:01:17.703Z,17.43
2022-08-09T15:03:42.580Z,17.54
2022-08-09T15:06:05.235Z,17.42
2022-08-09T15:08:26.691Z,16.73
2022-08-09T15:11:00.059Z,17.29
2022-08-09T15:13:23.765Z,16.96
2022-08-09T15:15:45.413Z,17.94
2022-08-09T15:18:13.933Z,18.04
2022-08-09T15:22:00.987Z,17.63
2022-08-09T15:24:02.072Z,18.12
2022-08-09T15:25:59.233Z,17.90
2022-08-09T15:28:27.354Z,18.25
2022-08-09T15:31:03.340Z,18.02
2022-08-09T15:34:15.511Z,17.88
2022-08-09T15:36:12.915Z,17.28
2022-08-09T15:38:36.229Z,17.57
2022-08-09T15:40:57.962Z,17.18
2022-08-09T15:43:19.396Z,17.33
2022-08-09T15:46:07.662Z,17.42
2022-08-09T15:48:30.786Z,16.31
2022-08-09T15:50:53.455Z,16.92
2022-08-09T15:54:02.125Z,17.08
2022-08-09T15:58:39.779Z,17.63
2022-08-09T16:01:03.140Z,17.18
2022-08-09T16:03:29.453Z,17.70
2022-08-09T16:06:02.914Z,17.53
2022-08-09T16:08:30.589Z,17.58
2022-08-09T16:10:55.663Z,17.67
2022-08-09T16:13:20.642Z,17.73
2022-08-09T16:16:10.119Z,17.29
2022-08-09T16:18:34.169Z,17.64
2022-08-09T16:20:55.647Z,17.95
2022-08-09T16:23:21.729Z,17.70
2022-08-09T16:25:43.337Z,18.06
2022-08-09T16:28:12.241Z,18.10
2022-08-09T16:30:35.266Z,18.28
2022-08-09T16:33:08.346Z,17.97
2022-08-09T16:35:57.476Z,18.04
2022-08-09T16:38:11.331Z,17.92
2022-08-09T16:40:40.648Z,18.10
2022-08-09T16:43:04.335Z,18.25
2022-08-09T16:45:27.243Z,17.84
2022-08-09T16:48:40.668Z,18.25
2022-08-09T16:50:34.203Z,18.30
2022-08-09T16:52:56.186Z,18.27
2022-08-09T16:55:18.295Z,18.47
2022-08-09T16:58:08.814Z,19.08
2022-08-09T17:00:22.281Z,19.30
2022-08-09T17:02:43.972Z,19.41
2022-08-09T17:05:09.500Z,19.36
2022-08-09T17:08:46.847Z,19.73
2022-08-09T17:10:17.902Z,19.58
2022-08-09T17:12:42.810Z,19.76
2022-08-09T17:15:31.334Z,20.35
2022-08-09T17:17:51.617Z,20.10
2022-08-09T17:20:30.430Z,20.45
2022-08-09T17:22:58.955Z,20.47
2022-08-09T17:25:22.202Z,20.62
2022-08-09T17:27:49.397Z,20.98
2022-08-09T17:30:15.254Z,21.25
2022-08-09T17:32:38.692Z,21.46
2022-08-09T17:35:07.738Z,21.80
2022-08-09T17:38:11.869Z,21.60
2022-08-09T17:40:17.970Z,22.24
2022-08-09T17:42:41.290Z,22.05
2022-08-09T17:45:06.498Z,22.62
2022-08-09T17:47:28.929Z,23.02
2022-08-09T17:49:57.098Z,23.19
2022-08-09T17:52:27.129Z,23.45
2022-08-09T17:54:48.629Z,23.44
2022-08-09T17:57:20.727Z,23.68
2022-08-09T18:00:05.379Z,23.88
2022-08-09T18:02:30.334Z,24.02
2022-08-09T18:04:56.978Z,24.06
2022-08-09T18:07:23.095Z,23.81
2022-08-09T18:09:45.168Z,24.70
2022-08-09T18:12:30.072Z,25.16
2022-08-09T18:15:02.781Z,25.32
2022-08-09T18:18:03.985Z,25.44
2022-08-09T18:20:56.855Z,25.82
2022-08-09T18:22:51.506Z,26.26
2022-08-09T18:25:12.986Z,26.27
2022-08-09T18:28:02.020Z,26.81
2022-08-09T18:30:38.508Z,27.19
2022-08-09T18:32:57.974Z,27.36
2022-08-09T18:35:19.792Z,27.60
2022-08-09T18:38:01.240Z,28.58
2022-08-09T18:40:27.035Z,29.43
2022-08-09T18:42:48.676Z,29.08
2022-08-09T18:45:10.623Z,29.61
2022-08-09T18:47:43.754Z,30.17
2022-08-09T18:50:10.047Z,30.66
2022-08-09T18:52:34.715Z,31.25
2022-08-09T18:54:56.794Z,31.01
2022-08-09T18:57:19.854Z,31.05
2022-08-09T18:59:48.848Z,31.53
2022-08-09T19:02:11.137Z,31.92
2022-08-09T19:04:36.407Z,32.26
2022-08-09T19:06:57.880Z,31.95
2022-08-09T19:09:34.107Z,32.26
2022-08-09T19:12:01.329Z,32.43
2022-08-09T19:14:29.218Z,33.02
2022-08-09T19:16:51.150Z,32.85
2022-08-09T19:19:25.829Z,33.42
2022-08-09T19:22:04.384Z,33.21
2022-08-09T19:24:37.669Z,33.90
2022-08-09T19:27:09.274Z,33.97
2022-08-09T19:29:55.124Z,34.18
2022-08-09T19:32:14.267Z,33.87
2022-08-09T19:34:42.772Z,34.96
2022-08-09T19:37:05.143Z,34.98
2022-08-09T19:39:29.307Z,35.63
2022-08-09T19:42:05.848Z,35.50
2022-08-09T19:44:28.705Z,35.58
2022-08-09T19:46:53.290Z,35.70
2022-08-09T19:50:06.571Z,36.28
2022-08-09T19:51:57.050Z,36.71
2022-08-09T19:54:18.679Z,37.52
2022-08-09T19:56:46.286Z,37.30
2022-08-09T19:59:39.511Z,37.34
2022-08-09T20:02:05.322Z,37.86
2022-08-09T20:04:37.433Z,38.32
2022-08-09T20:07:03.998Z,38.75
2022-08-09T20:09:45.224Z,38.93
2022-08-09T20:12:08.769Z,39.10
2022-08-09T20:14:50.249Z,38.91
2022-08-09T20:17:14.732Z,39.08
2022-08-09T20:19:48.631Z,39.96
2022-08-09T20:22:15.886Z,40.04
2022-08-09T20:24:40.960Z,40.67
2022-08-09T20:27:05.751Z,40.37
2022-08-09T20:29:37.375Z,40.36
2022-08-09T20:32:32.891Z,40.36
2022-08-09T20:34:40.741Z,40.87
2022-08-09T20:37:02.365Z,41.12
2022-08-09T20:40:14.120Z,41.45
2022-08-09T20:42:06.827Z,42.25
2022-08-09T20:44:33.257Z,41.87
2022-08-09T20:46:57.921Z,42.04
2022-08-09T20:49:19.454Z,42.85
2022-08-09T20:51:42.086Z,42.84
2022-08-09T20:54:03.904Z,43.19
2022-08-09T20:56:26.417Z,43.07
2022-08-09T20:58:54.262Z,43.34
2022-08-09T21:01:34.817Z,43.64
2022-08-09T21:05:49.422Z,43.49
2022-08-09T21:06:44.061Z,43.48
2022-08-09T21:09:06.552Z,43.51
2022-08-09T21:14:17.331Z,44.71
2022-08-09T21:16:38.953Z,44.99
2022-08-09T21:20:18.437Z,45.00
2022-08-09T21:21:56.716Z,45.88
2022-08-09T21:24:28.328Z,45.67
2022-08-09T21:26:51.533Z,45.99
2022-08-09T21:29:13.614Z,45.71
2022-08-09T21:31:49.469Z,45.73
2022-08-09T21:34:11.682Z,46.37
2022-08-09T21:36:33.419Z,47.12
2022-08-09T21:38:57.338Z,47.33
2022-08-09T21:41:19.625Z,47.46
2022-08-09T21:43:58.243Z,47.25
2022-08-09T21:46:19.872Z,47.30
2022-08-09T21:48:42.754Z,47.94
2022-08-09T21:51:13.454Z,48.19
2022-08-09T21:53:40.905Z,48.42
2022-08-09T21:56:03.643Z,48.66
2022-08-09T21:58:29.195Z,49.30
2022-08-09T22:00:52.722Z,49.17
2022-08-09T22:03:25.309Z,49.22
2022-08-09T22:05:51.356Z,48.26
2022-08-09T22:08:16.281Z,49.20
2022-08-09T22:11:26.488Z,48.78
2022-08-09T22:13:19.517Z,49.92
2022-08-09T22:15:41.073Z,50.36
2022-08-09T22:18:03.209Z,49.67
2022-08-09T22:20:27.591Z,49.69
2022-08-09T22:22:52.892Z,49.74
2022-08-09T22:26:08.690Z,51.37
2022-08-09T22:27:58.492Z,50.61
2022-08-09T22:30:26.316Z,50.42
2022-08-09T22:32:54.990Z,51.06
2022-08-09T22:36:03.150Z,50.75
2022-08-09T22:38:06.956Z,51.83
2022-08-09T22:40:29.383Z,51.60
2022-08-09T22:42:55.709Z,52.20
2022-08-09T22:48:13.370Z,51.81
2022-08-09T22:48:34.330Z,52.26
2022-08-09T22:50:41.435Z,53.46
2022-08-09T22:53:14.800Z,54.36
2022-08-09T22:56:06.672Z,54.00
2022-08-09T22:58:20.200Z,53.51
2022-08-09T23:00:54.239Z,53.89
2022-08-09T23:03:16.602Z,54.55
2022-08-09T23:05:58.076Z,53.88
2022-08-09T23:08:38.243Z,54.75
2022-08-09T23:10:59.728Z,55.05
2022-08-09T23:13:21.188Z,55.21
2022-08-09T23:15:42.703Z,55.22
2022-08-09T23:18:04.243Z,55.81
2022-08-09T23:20:26.226Z,55.60
2022-08-09T23:22:47.936Z,55.34
2022-08-09T23:25:10.934Z,55.85
2022-08-09T23:27:33.018Z,55.28
2022-08-09T23:29:54.767Z,56.78
2022-08-09T23:32:16.423Z,55.82
2022-08-09T23:34:38.057Z,55.60
2022-08-09T23:36:59.603Z,56.38
2022-08-09T23:39:21.136Z,56.42
2022-08-09T23:41:42.680Z,56.18
2022-08-09T23:44:04.690Z,55.95
2022-08-09T23:46:27.822Z,55.75
2022-08-09T23:48:49.303Z,56.62
2022-08-09T23:51:10.792Z,56.78
2022-08-09T23:53:37.666Z,57.29
2022-08-09T23:55:59.961Z,57.27
2022-08-09T23:58:27.606Z,56.58
